Time;durP1;ratioP1;P1;durP2;ratioP2;P2;SDS_P1;SDS_P2;PMS_P1;PMS_P2;Temp;Humidity;BMP_temperature;BMP_pressure;BME280_temperature;BME280_humidity;BME280_pressure;Samples;Min_cycle;Max_cycle;Signal;HPM_P1;HPM_P2
2021/10/25 00:01:31;;;;;;;19.00;11.50;;;;;;;4.54;96.02;101045.28;5012470;28;20048;-52
2021/10/25 00:03:59;;;;;;;17.33;11.07;;;;;;;4.47;95.44;101048.84;5021646;28;21183;-54
2021/10/25 00:06:26;;;;;;;15.20;10.88;;;;;;;4.46;96.28;101041.88;5016095;28;20540;-53
2021/10/25 00:08:52;;;;;;;16.85;10.35;;;;;;;4.27;95.75;101018.50;5009588;28;20510;-53
2021/10/25 00:11:20;;;;;;;14.98;9.75;;;;;;;4.32;95.48;101046.41;5007399;28;20064;-53
2021/10/25 00:13:47;;;;;;;14.57;10.00;;;;;;;4.28;96.12;101038.56;5009527;28;20053;-51
2021/10/25 00:16:14;;;;;;;15.00;9.90;;;;;;;4.27;96.37;101031.59;5010547;28;20052;-54
2021/10/25 00:18:41;;;;;;;14.82;10.20;;;;;;;4.25;96.50;101025.53;5011209;28;20524;-53
2021/10/25 00:21:07;;;;;;;15.88;9.93;;;;;;;4.18;94.65;101022.97;5004154;28;20053;-53
2021/10/25 00:23:34;;;;;;;15.73;10.00;;;;;;;4.21;94.41;101038.66;5011580;28;20045;-52
2021/10/25 00:26:02;;;;;;;15.00;9.90;;;;;;;4.15;95.37;101028.22;5013991;28;20065;-53
2021/10/25 00:28:28;;;;;;;15.90;10.20;;;;;;;4.12;95.53;101030.00;5007833;28;20415;-53
2021/10/25 00:30:55;;;;;;;15.52;9.75;;;;;;;3.99;96.11;101008.31;5005044;28;20044;-54
2021/10/25 00:33:21;;;;;;;13.50;9.73;;;;;;;4.10;96.42;101029.16;5014036;28;20045;-53
2021/10/25 00:35:48;;;;;;;16.50;10.68;;;;;;;4.12;97.02;101023.03;5012028;28;20049;-53
2021/10/25 00:38:15;;;;;;;16.23;10.15;;;;;;;4.16;96.17;101026.47;5010817;28;20049;-54
2021/10/25 00:40:42;;;;;;;13.23;9.98;;;;;;;4.18;96.86;101022.09;5004481;28;20045;-51
2021/10/25 00:43:09;;;;;;;16.08;10.23;;;;;;;4.20;97.29;101020.34;5010311;28;20057;-53
2021/10/25 00:45:35;;;;;;;14.07;10.30;;;;;;;4.23;96.82;101021.16;5007814;28;20053;-53
2021/10/25 00:48:02;;;;;;;13.93;9.98;;;;;;;4.26;96.79;101019.38;5007940;28;20067;-55
2021/10/25 00:50:29;;;;;;;18.42;10.02;;;;;;;4.24;96.52;101014.19;5007793;28;20056;-53
2021/10/25 00:52:55;;;;;;;14.40;10.07;;;;;;;4.21;96.65;101011.59;5031322;28;20076;-53
2021/10/25 00:55:22;;;;;;;14.02;10.25;;;;;;;4.19;96.52;101008.09;5012732;28;20049;-52
2021/10/25 00:57:48;;;;;;;16.35;10.43;;;;;;;4.18;97.16;101009.00;5008997;28;20049;-53
2021/10/25 01:00:16;;;;;;;15.30;10.45;;;;;;;4.18;97.87;101011.63;5001953;28;20969;-53
2021/10/25 01:02:42;;;;;;;13.02;9.85;;;;;;;4.14;97.59;101016.00;5009494;28;20048;-53
2021/10/25 01:05:09;;;;;;;17.48;11.25;;;;;;;4.18;98.03;101022.97;5007446;28;20049;-54
2021/10/25 01:07:38;;;;;;;14.50;9.50;;;;;;;4.21;97.90;101024.69;5013952;28;20410;-55
2021/10/25 01:10:05;;;;;;;17.70;10.80;;;;;;;4.26;98.53;101027.25;5009828;28;20049;-52
2021/10/25 01:12:32;;;;;;;14.25;10.43;;;;;;;4.31;97.95;101022.81;5012579;28;20657;-52
2021/10/25 01:14:59;;;;;;;15.88;10.48;;;;;;;4.32;98.12;101025.44;5012941;28;20201;-53
2021/10/25 01:17:26;;;;;;;15.27;9.73;;;;;;;4.33;98.33;101023.69;5011129;28;21167;-53
2021/10/25 01:19:56;;;;;;;16.88;10.80;;;;;;;4.31;98.88;101023.69;5011854;28;20065;-53
2021/10/25 01:22:23;;;;;;;12.98;9.85;;;;;;;4.35;99.28;101024.53;5017523;28;20041;-53
2021/10/25 01:24:51;;;;;;;15.68;10.75;;;;;;;4.34;98.97;101021.03;5015824;28;20057;-53
2021/10/25 01:27:19;;;;;;;16.58;11.10;;;;;;;4.37;99.39;101018.38;5009919;28;20044;-54
2021/10/25 01:29:46;;;;;;;15.27;10.65;;;;;;;4.36;99.25;101021.91;5015687;28;20057;-53
2021/10/25 01:32:13;;;;;;;16.90;10.75;;;;;;;4.33;98.94;101008.81;5027220;28;20049;-52
2021/10/25 01:34:41;;;;;;;14.57;10.50;;;;;;;4.34;99.37;101010.56;5034068;28;20044;-53
2021/10/25 01:37:08;;;;;;;13.77;10.00;;;;;;;4.36;99.76;101003.53;5019665;28;20060;-53
2021/10/25 01:39:35;;;;;;;16.25;10.70;;;;;;;4.40;99.39;101007.88;5006772;28;20057;-51
2021/10/25 01:42:03;;;;;;;16.42;10.75;;;;;;;4.38;99.30;101000.91;5010789;28;20063;-51
2021/10/25 01:44:29;;;;;;;14.65;9.73;;;;;;;4.40;99.62;101007.00;5011146;28;20056;-52
2021/10/25 01:46:56;;;;;;;15.60;10.48;;;;;;;4.39;99.90;101003.50;5014505;28;20045;-54
2021/10/25 01:49:22;;;;;;;14.27;10.55;;;;;;;4.36;99.52;101000.06;5018096;28;20053;-53
2021/10/25 01:51:49;;;;;;;17.27;11.77;;;;;;;4.32;100.00;100999.22;5010354;28;20052;-52
2021/10/25 01:54:16;;;;;;;14.93;11.07;;;;;;;4.28;99.43;101000.13;5018773;28;20057;-53
2021/10/25 01:56:42;;;;;;;14.80;10.60;;;;;;;4.23;99.89;101013.31;5015154;28;20051;-52
2021/10/25 01:59:10;;;;;;;15.07;9.75;;;;;;;4.16;98.02;101003.75;5005962;28;20069;-52
2021/10/25 02:01:36;;;;;;;14.88;10.13;;;;;;;3.99;97.24;101002.19;5004887;28;20053;-52
2021/10/25 02:04:04;;;;;;;14.75;9.65;;;;;;;3.96;97.25;101004.84;5006526;28;20057;-54
2021/10/25 02:06:32;;;;;;;18.17;9.82;;;;;;;3.81;97.37;101004.13;5010372;28;20045;-52
2021/10/25 02:09:00;;;;;;;13.80;9.80;;;;;;;3.70;97.00;101003.38;5018687;28;20041;-53
2021/10/25 02:11:26;;;;;;;15.18;9.60;;;;;;;3.70;97.37;101008.59;5021724;28;20052;-52
2021/10/25 02:13:53;;;;;;;15.73;9.77;;;;;;;3.70;98.34;101005.97;5020881;28;20055;-55
2021/10/25 02:16:20;;;;;;;13.23;9.07;;;;;;;3.68;97.60;101004.25;5020840;28;20041;-51
2021/10/25 02:18:47;;;;;;;12.07;9.02;;;;;;;3.65;97.88;101010.38;5027998;28;20160;-53
2021/10/25 02:21:14;;;;;;;14.57;9.57;;;;;;;3.65;98.21;101007.75;5022164;28;20547;-53
2021/10/25 02:23:41;;;;;;;13.75;9.63;;;;;;;3.62;97.58;100999.09;5013546;28;20057;-53
2021/10/25 02:26:07;;;;;;;12.75;9.02;;;;;;;3.58;97.55;101005.22;5015499;28;20037;-53
2021/10/25 02:28:34;;;;;;;13.45;8.93;;;;;;;3.52;98.01;100995.66;5013552;28;20049;-56
2021/10/25 02:31:01;;;;;;;13.90;9.73;;;;;;;3.45;98.23;101004.47;5005505;28;20052;-53
2021/10/25 02:33:27;;;;;;;13.13;9.20;;;;;;;3.41;98.18;100994.91;5013589;28;20498;-53
2021/10/25 02:35:54;;;;;;;11.48;9.02;;;;;;;3.28;98.47;100977.56;5008540;28;20057;-54
2021/10/25 02:38:20;;;;;;;12.38;9.40;;;;;;;3.38;98.96;100992.28;5016544;28;20060;-53
2021/10/25 02:40:47;;;;;;;14.48;9.50;;;;;;;3.42;98.98;100991.41;5007542;28;20122;-52
2021/10/25 02:43:13;;;;;;;13.77;9.57;;;;;;;3.44;99.12;100990.50;5014950;28;20056;-54
2021/10/25 02:45:40;;;;;;;14.35;8.95;;;;;;;3.51;99.03;100994.78;5011704;28;20053;-52
2021/10/25 02:48:07;;;;;;;14.15;8.80;;;;;;;3.57;98.86;100993.88;5016680;28;20819;-53
2021/10/25 02:50:34;;;;;;;12.27;9.00;;;;;;;3.62;98.11;100993.84;5015891;28;20049;-52
2021/10/25 02:53:00;;;;;;;10.80;8.27;;;;;;;3.64;98.06;100986.81;5016238;28;20041;-53
2021/10/25 02:55:27;;;;;;;12.00;8.80;;;;;;;3.65;98.62;100989.44;5015167;28;21031;-53
2021/10/25 02:57:54;;;;;;;11.13;8.05;;;;;;;3.62;98.20;100989.47;5017681;28;20064;-53
2021/10/25 03:00:20;;;;;;;13.18;8.98;;;;;;;3.62;97.97;100994.69;5012120;28;20053;-53
2021/10/25 03:02:47;;;;;;;14.70;8.52;;;;;;;3.61;97.82;101000.84;5016152;28;20103;-52
2021/10/25 03:05:14;;;;;;;13.77;8.60;;;;;;;3.62;97.73;101005.16;5009183;28;20693;-52
2021/10/25 03:07:40;;;;;;;10.90;7.75;;;;;;;3.67;97.76;100998.16;5024397;28;20063;-52
2021/10/25 03:10:08;;;;;;;11.55;8.98;;;;;;;3.69;97.50;100995.53;5021649;28;20056;-52
2021/10/25 03:12:35;;;;;;;13.18;8.38;;;;;;;3.73;96.79;100997.22;5031031;28;20856;-52
2021/10/25 03:15:01;;;;;;;11.63;8.55;;;;;;;3.75;97.33;100998.97;5038709;28;20065;-52
2021/10/25 03:17:28;;;;;;;12.35;8.63;;;;;;;3.75;96.79;100998.97;5020354;28;20046;-54
2021/10/25 03:19:55;;;;;;;13.32;9.05;;;;;;;3.77;97.14;101004.19;5012411;28;20049;-52
2021/10/25 03:22:21;;;;;;;16.42;9.50;;;;;;;3.77;97.15;101009.44;5027663;28;20053;-52
2021/10/25 03:24:48;;;;;;;11.80;8.60;;;;;;;3.77;97.46;101007.69;5024312;28;20044;-53
2021/10/25 03:27:14;;;;;;;16.45;10.00;;;;;;;3.76;97.55;101003.31;5013865;28;20056;-53
2021/10/25 03:29:41;;;;;;;14.27;8.82;;;;;;;3.62;97.42;100992.06;5017111;28;20056;-52
2021/10/25 03:32:08;;;;;;;13.45;9.38;;;;;;;3.64;97.26;101005.16;5022822;28;20046;-52
2021/10/25 03:34:34;;;;;;;12.65;9.13;;;;;;;3.42;97.01;100988.78;5018922;28;20050;-53
2021/10/25 03:37:02;;;;;;;12.52;8.23;;;;;;;3.39;96.71;100996.66;5018539;28;20413;-54
2021/10/25 03:39:32;;;;;;;11.45;8.43;;;;;;;3.29;96.55;101000.25;5013049;28;20098;-52
2021/10/25 03:42:00;;;;;;;12.13;8.13;;;;;;;3.22;96.00;101004.63;5014827;28;20053;-54
2021/10/25 03:44:46;;;;;;;14.82;8.63;;;;;;;3.14;97.02;101009.06;5023209;28;20068;-55
2021/10/25 03:47:40;;;;;;;12.00;8.30;;;;;;;3.05;96.46;101006.50;5022491;28;20548;-53
2021/10/25 03:50:08;;;;;;;13.10;9.30;;;;;;;2.93;96.35;100998.72;5028601;28;20363;-53
2021/10/25 03:52:51;;;;;;;14.25;9.70;;;;;;;2.89;97.36;100994.38;5025006;28;20060;-54
2021/10/25 03:58:07;;;;;;;20.38;11.20;;;;;;;2.78;97.80;101004.94;5021240;28;20053;-53
2021/10/25 04:28:00;;;;;;;19.60;11.75;;;;;;;2.49;100.00;100984.16;5010566;28;20100;-52
2021/10/25 04:30:31;;;;;;;18.60;10.50;;;;;;;2.48;100.00;100974.59;5018361;28;20044;-53
2021/10/25 04:32:58;;;;;;;19.52;12.38;;;;;;;2.47;100.00;100981.56;5017147;28;20049;-54
2021/10/25 04:35:25;;;;;;;20.45;11.32;;;;;;;2.49;100.00;100986.78;5025007;28;20056;-52
2021/10/25 04:37:52;;;;;;;18.98;11.50;;;;;;;2.47;100.00;100980.69;5034433;28;20469;-52
2021/10/25 04:40:18;;;;;;;21.17;11.73;;;;;;;2.47;100.00;100996.38;5025639;28;20059;-56
2021/10/25 04:42:45;;;;;;;20.10;12.10;;;;;;;2.53;100.00;100990.22;5012877;28;20052;-51
2021/10/25 04:45:13;;;;;;;19.02;11.95;;;;;;;2.54;100.00;100990.22;5004905;28;20099;-54
2021/10/25 04:47:39;;;;;;;19.67;11.80;;;;;;;2.57;100.00;100978.88;5011032;28;20132;-53
2021/10/25 04:50:06;;;;;;;21.17;12.32;;;;;;;2.50;100.00;100956.28;5009348;28;20404;-53
2021/10/25 04:52:33;;;;;;;22.58;12.85;;;;;;;2.66;100.00;100973.63;5006987;28;20053;-52
2021/10/25 04:54:59;;;;;;;18.98;12.30;;;;;;;2.71;100.00;100970.09;4994033;28;20056;-53
2021/10/25 04:57:26;;;;;;;19.98;12.65;;;;;;;2.71;100.00;100963.97;5008661;28;20053;-53
2021/10/25 04:59:52;;;;;;;22.33;13.23;;;;;;;2.60;100.00;100937.03;5010512;28;20071;-52
2021/10/25 05:02:20;;;;;;;20.10;12.27;;;;;;;2.73;100.00;100946.53;5006784;28;20049;-52
2021/10/25 05:04:47;;;;;;;19.77;11.52;;;;;;;2.74;100.00;100950.91;5011984;28;20498;-52
2021/10/25 05:07:13;;;;;;;20.45;11.50;;;;;;;2.72;100.00;100942.19;5012109;28;20037;-53
2021/10/25 05:09:40;;;;;;;22.25;12.70;;;;;;;2.71;100.00;100941.31;5011530;28;20053;-52
2021/10/25 05:12:13;;;;;;;21.08;12.18;;;;;;;2.72;100.00;100947.41;5010612;28;20053;-52
2021/10/25 05:14:43;;;;;;;21.45;12.00;;;;;;;2.75;100.00;100952.63;5016625;28;20049;-53
2021/10/25 05:17:10;;;;;;;18.77;11.95;;;;;;;2.76;100.00;100942.16;5024375;28;20425;-54
2021/10/25 05:19:36;;;;;;;18.35;12.00;;;;;;;2.85;100.00;100945.59;5014162;28;20056;-53
2021/10/25 05:22:03;;;;;;;22.30;12.88;;;;;;;2.94;100.00;100946.41;5011394;28;20064;-52
2021/10/25 05:24:30;;;;;;;21.23;13.75;;;;;;;3.07;100.00;100944.56;5015021;28;20056;-52
2021/10/25 05:26:56;;;;;;;20.23;12.48;;;;;;;3.15;100.00;100945.34;5013040;28;20135;-52
2021/10/25 05:29:23;;;;;;;22.38;13.80;;;;;;;3.23;100.00;100947.94;5016727;28;20055;-54
2021/10/25 05:31:50;;;;;;;24.52;13.68;;;;;;;3.30;100.00;100940.03;5006016;28;20045;-53
2021/10/25 05:34:16;;;;;;;24.13;14.07;;;;;;;3.38;100.00;100932.97;5028827;28;20064;-52
2021/10/25 05:36:43;;;;;;;37.47;16.95;;;;;;;3.47;100.00;100937.22;5022228;28;20053;-54
2021/10/25 05:39:10;;;;;;;37.58;17.38;;;;;;;3.55;100.00;100935.41;5022912;28;20983;-52
2021/10/25 05:41:39;;;;;;;37.55;18.45;;;;;;;3.61;100.00;100924.91;5005738;28;20049;-53
2021/10/25 05:44:05;;;;;;;42.33;18.60;;;;;;;3.73;100.00;100935.25;5003446;28;20060;-52
2021/10/25 05:46:32;;;;;;;52.10;22.33;;;;;;;3.79;100.00;100937.78;5010216;28;20048;-53
2021/10/25 05:48:59;;;;;;;43.97;20.60;;;;;;;3.84;100.00;100942.97;5008600;28;20063;-52
2021/10/25 05:51:26;;;;;;;50.97;20.30;;;;;;;3.85;100.00;100944.72;5000535;28;20817;-51
2021/10/25 05:53:54;;;;;;;51.05;23.08;;;;;;;3.86;100.00;100936.84;5009032;28;20593;-53
2021/10/25 05:56:27;;;;;;;52.45;21.63;;;;;;;3.97;100.00;100938.47;4995453;28;20060;-53
2021/10/25 05:58:54;;;;;;;43.40;22.05;;;;;;;4.00;100.00;100938.44;5016206;28;20049;-53
2021/10/25 06:01:27;;;;;;;46.08;22.80;;;;;;;3.98;100.00;100932.34;5012876;28;20041;-53
2021/10/25 06:04:02;;;;;;;59.28;24.95;;;;;;;4.08;100.00;100958.44;5014557;28;20045;-52
2021/10/25 06:06:29;;;;;;;47.95;22.08;;;;;;;4.09;100.00;100959.31;5007228;28;20074;-52
2021/10/25 06:08:55;;;;;;;49.65;23.00;;;;;;;4.12;100.00;100951.38;5013650;28;20045;-52
2021/10/25 06:11:22;;;;;;;51.03;22.20;;;;;;;4.15;100.00;100953.97;5012352;28;20510;-52
2021/10/25 06:13:49;;;;;;;46.28;22.42;;;;;;;4.16;100.00;100953.09;5014187;28;20058;-53
2021/10/25 06:16:17;;;;;;;44.53;21.30;;;;;;;4.21;100.00;100948.66;5018397;28;20045;-53
2021/10/25 06:18:44;;;;;;;41.78;21.65;;;;;;;4.28;100.00;100954.69;5015221;28;20495;-52
2021/10/25 06:21:11;;;;;;;45.55;21.40;;;;;;;4.28;100.00;100950.31;5010822;28;20068;-52
2021/10/25 06:23:38;;;;;;;39.95;19.98;;;;;;;4.22;100.00;100958.28;5017029;28;20049;-52
2021/10/25 06:26:05;;;;;;;34.25;20.17;;;;;;;4.19;100.00;100950.44;5016070;28;20054;-52
2021/10/25 06:28:32;;;;;;;36.67;20.05;;;;;;;4.19;100.00;100961.78;5007638;28;20052;-51
2021/10/25 06:31:07;;;;;;;45.25;19.27;;;;;;;4.03;100.00;100946.25;5011361;28;20521;-53
2021/10/25 06:33:41;;;;;;;33.70;20.13;;;;;;;4.09;100.00;100967.16;5014329;28;20107;-52
2021/10/25 06:36:08;;;;;;;35.08;19.17;;;;;;;4.06;100.00;100978.56;5018151;28;20052;-52
2021/10/25 06:38:38;;;;;;;34.58;19.10;;;;;;;4.06;100.00;100975.06;5015505;28;20049;-53
2021/10/25 06:41:06;;;;;;;35.33;20.23;;;;;;;4.05;100.00;100978.56;5013216;28;20162;-53
2021/10/25 06:43:33;;;;;;;40.47;21.63;;;;;;;4.08;100.00;100973.28;5013427;28;20056;-52
2021/10/25 06:46:01;;;;;;;34.63;18.48;;;;;;;4.06;100.00;100983.78;5016456;28;20049;-53
2021/10/25 06:48:29;;;;;;;35.65;18.80;;;;;;;4.04;100.00;100977.69;5017869;28;20580;-52
2021/10/25 06:50:56;;;;;;;35.00;19.88;;;;;;;4.05;100.00;100987.28;5009419;28;20053;-52
2021/10/25 06:53:23;;;;;;;39.08;19.27;;;;;;;4.10;100.00;100993.34;5010919;28;20060;-52
2021/10/25 06:55:50;;;;;;;36.08;19.85;;;;;;;4.12;100.00;100993.31;5014759;28;20053;-52
2021/10/25 06:58:19;;;;;;;35.70;20.15;;;;;;;4.18;100.00;100996.75;5009527;28;20053;-54
2021/10/25 07:00:46;;;;;;;36.63;19.45;;;;;;;4.23;100.00;100989.72;5014964;28;20041;-52
2021/10/25 07:03:13;;;;;;;32.47;18.50;;;;;;;4.25;100.00;100994.91;5005113;28;20045;-52
2021/10/25 07:05:39;;;;;;;39.28;20.45;;;;;;;4.29;100.00;100998.38;5019135;28;20495;-52
2021/10/25 07:08:06;;;;;;;40.10;20.80;;;;;;;4.30;100.00;101000.97;5012896;28;20058;-53
2021/10/25 07:10:35;;;;;;;47.47;22.17;;;;;;;4.32;100.00;101004.47;5016497;28;20040;-52
2021/10/25 07:13:16;;;;;;;45.78;21.83;;;;;;;4.33;100.00;101016.69;5010325;28;20049;-53
2021/10/25 07:16:11;;;;;;;50.70;20.92;;;;;;;4.36;100.00;101013.16;5013900;28;20053;-53
2021/10/25 07:18:39;;;;;;;36.60;19.85;;;;;;;4.37;100.00;101015.78;5017061;28;20052;-52
2021/10/25 07:26:45;;;;;;;48.65;22.65;;;;;;;4.33;100.00;101042.03;5026845;28;20125;-53
2021/10/25 08:00:12;;;;;;;56.47;25.45;;;;;;;4.89;100.00;101017.69;5013548;28;20068;-53
2021/10/25 08:10:29;;;;;;;49.35;24.45;;;;;;;4.88;100.00;101003.72;5010468;28;20053;-53
2021/10/25 08:12:58;;;;;;;52.50;25.67;;;;;;;5.05;100.00;101016.59;5007759;28;20064;-53
2021/10/25 08:15:45;;;;;;;56.28;25.05;;;;;;;5.09;100.00;101013.03;5007391;28;20041;-53
2021/10/25 08:20:53;;;;;;;57.45;23.15;;;;;;;5.11;100.00;101018.28;5010358;28;20060;-53
2021/10/25 08:23:20;;;;;;;50.72;24.05;;;;;;;5.08;100.00;101016.56;5010959;28;20052;-53
2021/10/25 08:25:47;;;;;;;55.35;25.27;;;;;;;5.15;100.00;101007.72;5015864;28;20046;-53
2021/10/25 08:28:14;;;;;;;57.28;25.70;;;;;;;5.25;100.00;101011.06;5012377;28;20051;-54
2021/10/25 08:30:41;;;;;;;49.25;25.08;;;;;;;5.29;100.00;101018.00;5016943;28;20052;-52
2021/10/25 08:33:22;;;;;;;57.28;25.55;;;;;;;5.21;100.00;101004.09;5018812;28;20041;-54
2021/10/25 08:41:05;;;;;;;48.67;24.08;;;;;;;5.29;100.00;101018.88;5014208;28;20998;-52
2021/10/25 08:43:35;;;;;;;50.53;25.48;;;;;;;5.33;99.96;101018.84;5004800;28;20049;-52
2021/10/25 08:46:06;;;;;;;55.72;25.42;;;;;;;5.38;100.00;101009.09;5012271;28;20053;-54
2021/10/25 08:48:33;;;;;;;54.67;26.65;;;;;;;5.44;99.89;101017.75;5013135;28;21443;-53
2021/10/25 08:51:01;;;;;;;50.05;25.77;;;;;;;5.49;99.92;101020.31;5012414;28;20724;-52
2021/10/25 08:53:28;;;;;;;56.35;27.02;;;;;;;5.54;99.43;101023.72;5008848;28;20060;-52
2021/10/25 08:55:54;;;;;;;51.65;25.27;;;;;;;5.58;97.65;101025.41;5014366;28;20053;-52
2021/10/25 08:58:21;;;;;;;57.55;26.75;;;;;;;5.61;97.14;101022.75;5015795;28;20410;-53
2021/10/25 09:00:52;;;;;;;58.25;26.77;;;;;;;5.55;96.56;101026.31;5017082;28;20059;-53
2021/10/25 09:03:23;;;;;;;51.83;24.70;;;;;;;5.54;97.12;101015.84;5006859;28;20345;-52
2021/10/25 09:06:00;;;;;;;52.63;27.90;;;;;;;5.59;96.92;101024.53;5009484;28;20046;-53
2021/10/25 09:08:27;;;;;;;58.40;27.17;;;;;;;5.65;96.83;101029.69;5008462;28;20047;-53
2021/10/25 09:10:55;;;;;;;48.80;25.05;;;;;;;5.71;96.06;101020.81;5005605;28;20525;-53
2021/10/25 09:13:26;;;;;;;49.88;25.05;;;;;;;5.80;95.87;101018.91;4999813;28;20551;-53
2021/10/25 09:15:54;;;;;;;55.63;26.63;;;;;;;5.94;95.34;101014.31;5007254;28;20490;-53
2021/10/25 09:18:25;;;;;;;54.35;27.55;;;;;;;6.03;94.13;101021.16;5008537;28;20532;-53
2021/10/25 09:20:55;;;;;;;50.17;26.20;;;;;;;6.10;93.24;101020.16;5000744;28;21641;-53
2021/10/25 09:23:24;;;;;;;50.25;26.40;;;;;;;6.10;93.32;101014.03;5011453;28;20045;-53
2021/10/25 09:25:53;;;;;;;49.90;25.38;;;;;;;6.17;93.83;101015.63;5006944;28;20406;-53
2021/10/25 09:28:28;;;;;;;46.28;24.90;;;;;;;6.14;91.40;101013.91;5003692;28;20048;-53
2021/10/25 09:31:01;;;;;;;49.60;27.05;;;;;;;6.23;91.32;101015.53;5005862;28;20045;-53
2021/10/25 09:33:36;;;;;;;47.67;25.45;;;;;;;6.25;91.27;101013.72;5009916;28;20507;-52
2021/10/25 09:36:07;;;;;;;48.28;25.95;;;;;;;6.28;91.41;101018.94;5001150;28;20052;-53
2021/10/25 09:49:10;;;;;;;44.42;25.70;;;;;;;6.47;89.48;101006.25;5018322;28;20049;-53
2021/10/25 09:51:41;;;;;;;42.88;25.63;;;;;;;6.54;89.87;101008.75;5009294;28;20063;-53
2021/10/25 09:54:11;;;;;;;43.75;24.15;;;;;;;6.68;88.59;101006.69;5021446;28;20053;-52
2021/10/25 09:56:45;;;;;;;41.38;26.00;;;;;;;6.77;88.94;101002.16;5013399;28;20059;-52
2021/10/25 10:01:44;;;;;;;36.83;23.20;;;;;;;6.86;87.90;100992.28;5010260;28;20355;-53
2021/10/25 10:04:11;;;;;;;39.83;23.98;;;;;;;7.04;86.38;101004.16;4998209;28;20156;-52
2021/10/25 10:06:37;;;;;;;41.45;25.90;;;;;;;7.06;85.95;100997.09;5004411;28;20597;-52
2021/10/25 10:09:04;;;;;;;37.38;24.65;;;;;;;6.92;84.96;100996.53;5010427;28;20052;-52
2021/10/25 10:11:32;;;;;;;41.75;25.67;;;;;;;6.83;85.86;101002.00;5002616;28;20045;-52
2021/10/25 10:13:59;;;;;;;42.35;26.10;;;;;;;6.81;86.29;100999.38;5009247;28;20041;-52
2021/10/25 10:16:27;;;;;;;42.15;25.75;;;;;;;6.71;86.62;100981.22;5003541;28;20057;-52
2021/10/25 10:19:04;;;;;;;42.35;25.30;;;;;;;6.81;86.49;101009.91;5005525;28;20817;-51
2021/10/25 10:21:31;;;;;;;39.65;24.58;;;;;;;6.84;86.84;101011.63;5008608;28;20053;-53
2021/10/25 10:24:04;;;;;;;41.65;26.42;;;;;;;6.86;87.14;101009.84;4996969;28;20049;-53
2021/10/25 10:26:33;;;;;;;43.70;26.75;;;;;;;6.87;87.25;101004.53;4995068;28;20057;-52
2021/10/25 10:29:08;;;;;;;40.92;25.70;;;;;;;6.94;86.97;101011.38;5000938;28;20042;-52
2021/10/25 10:31:35;;;;;;;41.22;25.60;;;;;;;6.95;86.38;101012.25;5003666;28;20045;-52
2021/10/25 10:34:13;;;;;;;43.80;26.35;;;;;;;7.07;86.56;101000.59;5005942;28;20051;-52
2021/10/25 10:37:22;;;;;;;42.58;26.20;;;;;;;7.21;86.57;100988.84;5007974;28;20048;-53
2021/10/25 10:40:07;;;;;;;42.85;25.15;;;;;;;7.46;85.39;100989.09;5005785;28;20052;-53
2021/10/25 10:42:35;;;;;;;44.40;26.67;;;;;;;7.66;83.72;100985.97;5009933;28;20471;-52
2021/10/25 10:45:10;;;;;;;40.15;24.90;;;;;;;7.90;84.44;100990.59;5019218;28;20521;-52
2021/10/25 10:47:50;;;;;;;37.78;24.17;;;;;;;8.11;82.95;100978.59;5017789;28;20049;-52
2021/10/25 10:50:19;;;;;;;40.50;24.98;;;;;;;8.32;81.01;100979.81;5013992;28;20702;-51
2021/10/25 10:52:50;;;;;;;43.35;25.95;;;;;;;8.29;80.48;100974.59;5013925;28;20045;-51
2021/10/25 10:55:22;;;;;;;39.00;24.83;;;;;;;8.32;80.14;100977.19;5017070;28;20049;-51
2021/10/25 11:00:36;;;;;;;40.60;23.55;;;;;;;8.42;80.32;100963.66;5009191;28;20055;-52
2021/10/25 11:03:12;;;;;;;38.35;24.52;;;;;;;8.61;79.88;100963.13;5004174;28;21138;-51
2021/10/25 11:05:44;;;;;;;40.53;24.85;;;;;;;8.83;79.36;100971.25;5009998;28;20137;-52
2021/10/25 11:08:15;;;;;;;39.22;24.75;;;;;;;8.93;77.29;100973.56;5017609;28;20059;-52
2021/10/25 11:10:46;;;;;;;43.55;24.88;;;;;;;9.07;76.65;100962.56;5023174;28;20055;-52
2021/10/25 11:13:19;;;;;;;39.88;24.08;;;;;;;9.21;75.07;100964.78;5018505;28;20414;-51
2021/10/25 11:16:01;;;;;;;35.42;24.05;;;;;;;9.27;75.14;100946.94;5018691;28;20406;-51
2021/10/25 11:18:31;;;;;;;38.58;24.10;;;;;;;9.53;74.31;100955.78;5011523;28;20134;-52
2021/10/25 11:21:14;;;;;;;36.55;22.98;;;;;;;9.80;72.40;100955.69;5010233;28;20060;-51
2021/10/25 11:23:43;;;;;;;32.33;22.17;;;;;;;10.05;72.66;100968.06;5012610;28;20499;-53
2021/10/25 11:26:19;;;;;;;38.08;24.50;;;;;;;10.28;72.35;100951.38;5012811;28;20061;-51
2021/10/25 11:28:59;;;;;;;38.60;23.80;;;;;;;10.45;70.29;100947.19;5007024;28;20420;-53
2021/10/25 11:31:27;;;;;;;35.50;23.98;;;;;;;10.47;69.82;100937.41;5015544;28;20057;-52
2021/10/25 11:33:54;;;;;;;34.90;23.20;;;;;;;10.55;69.39;100935.31;5013338;28;20045;-53
2021/10/25 11:36:24;;;;;;;34.45;23.30;;;;;;;10.66;68.67;100934.06;5004906;28;20326;-53
2021/10/25 11:38:51;;;;;;;33.45;22.52;;;;;;;10.55;68.82;100916.78;5026327;28;20569;-53
2021/10/25 11:41:18;;;;;;;40.50;24.27;;;;;;;10.65;70.06;100929.69;5015855;28;20049;-52
2021/10/25 11:43:44;;;;;;;36.85;24.35;;;;;;;10.54;69.56;100938.06;5008454;28;20065;-51
2021/10/25 11:46:18;;;;;;;37.90;23.85;;;;;;;10.69;71.07;100936.59;5021794;28;20048;-53
2021/10/25 11:48:58;;;;;;;36.92;23.55;;;;;;;11.00;69.53;100933.59;5017872;28;20053;-52
2021/10/25 11:51:26;;;;;;;36.03;23.77;;;;;;;11.15;67.78;100925.03;5020832;28;20091;-52
2021/10/25 11:53:58;;;;;;;36.47;23.92;;;;;;;11.20;68.01;100925.69;5011561;28;20053;-52
2021/10/25 11:56:26;;;;;;;34.15;22.85;;;;;;;11.33;66.80;100924.28;5014192;28;20057;-51
2021/10/25 11:58:54;;;;;;;33.80;23.02;;;;;;;11.44;66.62;100922.03;5028639;28;20060;-52
2021/10/25 12:01:21;;;;;;;33.97;22.25;;;;;;;11.54;66.17;100922.47;5011809;28;20504;-53
2021/10/25 12:03:48;;;;;;;36.25;23.05;;;;;;;11.51;65.89;100906.69;5015522;28;20049;-53
2021/10/25 12:06:21;;;;;;;32.90;22.17;;;;;;;11.52;66.25;100911.06;5018395;28;20053;-51
2021/10/25 12:08:56;;;;;;;34.63;22.98;;;;;;;11.66;66.73;100899.88;5015392;28;21478;-51
2021/10/25 12:12:05;;;;;;;35.35;22.65;;;;;;;11.82;65.09;100871.75;5013680;28;20064;-52
2021/10/25 12:14:30;;;;;;;39.00;24.95;;;;;;;11.83;65.34;100886.75;5006362;28;20135;-51
2021/10/25 12:16:57;;;;;;;33.78;22.73;;;;;;;11.93;65.36;100881.00;5010745;28;20047;-51
2021/10/25 12:19:24;;;;;;;37.30;22.63;;;;;;;12.27;64.76;100884.78;5029630;28;20044;-52
2021/10/25 12:21:51;;;;;;;31.55;22.08;;;;;;;12.75;63.88;100873.59;5030494;28;20040;-52
2021/10/25 12:24:19;;;;;;;31.25;21.88;;;;;;;13.24;61.00;100871.22;5023483;28;20087;-51
2021/10/25 12:26:57;;;;;;;32.47;21.65;;;;;;;13.94;57.82;100868.44;5022618;28;20549;-51
2021/10/25 12:29:24;;;;;;;30.35;20.95;;;;;;;14.76;55.73;100863.06;5016814;28;20522;-51
2021/10/25 12:31:52;;;;;;;32.05;21.80;;;;;;;15.63;52.62;100861.47;5006561;28;20049;-52
2021/10/25 12:34:19;;;;;;;30.58;21.13;;;;;;;16.42;50.32;100861.88;5011316;28;20057;-53
2021/10/25 12:36:46;;;;;;;33.50;20.92;;;;;;;16.83;49.90;100842.34;5016603;28;20056;-51
2021/10/25 12:39:18;;;;;;;29.55;19.45;;;;;;;17.61;47.89;100843.28;5013431;28;20498;-52
2021/10/25 12:41:52;;;;;;;27.52;19.17;;;;;;;18.40;44.49;100840.34;5025992;28;20081;-53
2021/10/25 12:44:33;;;;;;;26.27;19.27;;;;;;;19.19;42.85;100831.78;5020942;28;20045;-52
2021/10/25 12:47:21;;;;;;;25.50;19.00;;;;;;;19.25;41.30;100838.50;5020757;28;20049;-53
2021/10/25 12:49:49;;;;;;;24.67;18.13;;;;;;;19.26;41.60;100827.63;5010369;28;20045;-54
2021/10/25 12:52:18;;;;;;;24.48;18.20;;;;;;;19.20;42.33;100829.97;5009235;28;20049;-53
2021/10/25 12:54:45;;;;;;;27.40;19.05;;;;;;;19.51;41.10;100821.28;5002422;28;20072;-51
2021/10/25 12:57:24;;;;;;;24.77;19.00;;;;;;;19.01;42.19;100800.97;5023346;28;20056;-52
2021/10/25 13:00:09;;;;;;;27.52;19.42;;;;;;;19.08;41.99;100817.44;5021851;28;20152;-53
2021/10/25 13:02:52;;;;;;;21.48;16.48;;;;;;;19.84;41.19;100815.09;5014901;28;20057;-53